Time;durP1;ratioP1;P1;durP2;ratioP2;P2;SDS_P1;SDS_P2;PMS_P1;PMS_P2;Temp;Humidity;BMP_temperature;BMP_pressure;BME280_temperature;BME280_humidity;BME280_pressure;Samples;Min_cycle;Max_cycle;Signal;HPM_P1;HPM_P2
2021/01/07 00:00:24;;;;;;;0.30;0.30;;;1.60;91.90;;;;;;5076011;28;20494;-75
2021/01/07 00:02:49;;;;;;;0.40;0.20;;;1.60;91.90;;;;;;5094349;28;20122;-75
2021/01/07 00:05:15;;;;;;;0.10;0.10;;;1.60;91.90;;;;;;5094036;28;20047;-74
2021/01/07 00:07:41;;;;;;;0.30;0.30;;;1.60;91.90;;;;;;5075361;28;20044;-74
2021/01/07 00:10:07;;;;;;;0.70;0.40;;;1.60;91.90;;;;;;5093505;28;20032;-75
2021/01/07 00:12:33;;;;;;;0.40;0.22;;;1.60;91.90;;;;;;5094034;28;20032;-74
2021/01/07 00:14:59;;;;;;;0.28;0.20;;;1.60;91.90;;;;;;5093469;28;20059;-76
2021/01/07 00:17:24;;;;;;;0.20;0.20;;;1.50;91.90;;;;;;5075300;28;20122;-75
2021/01/07 00:19:50;;;;;;;0.25;0.25;;;1.50;92.00;;;;;;5093845;28;20042;-75
2021/01/07 00:22:16;;;;;;;0.80;0.30;;;1.50;92.00;;;;;;5093862;28;20070;-75
2021/01/07 00:24:42;;;;;;;0.30;0.30;;;1.50;92.00;;;;;;5075338;28;20054;-74
2021/01/07 00:27:07;;;;;;;0.50;0.32;;;1.50;92.00;;;;;;5093134;28;20044;-76
2021/01/07 00:29:33;;;;;;;0.40;0.35;;;1.60;92.00;;;;;;5075321;28;20547;-74
2021/01/07 00:31:59;;;;;;;0.63;0.43;;;1.40;92.00;;;;;;5093708;28;20035;-73
2021/01/07 00:34:25;;;;;;;0.60;0.40;;;1.50;92.00;;;;;;5075228;28;20127;-73
2021/01/07 00:36:55;;;;;;;0.70;0.50;;;1.40;92.00;;;;;;5075664;28;20393;-74
2021/01/07 00:39:22;;;;;;;0.52;0.40;;;1.40;92.10;;;;;;5075236;28;20032;-74
2021/01/07 00:41:59;;;;;;;0.88;0.50;;;1.40;92.00;;;;;;5093294;28;20052;-74
2021/01/07 00:44:25;;;;;;;0.52;0.40;;;1.40;92.00;;;;;;5093558;28;20521;-73
2021/01/07 00:46:51;;;;;;;0.47;0.28;;;1.50;92.10;;;;;;5093113;28;20067;-74
2021/01/07 00:49:17;;;;;;;0.60;0.35;;;1.30;92.00;;;;;;5073186;28;20112;-74
2021/01/07 00:51:43;;;;;;;0.55;0.30;;;1.40;92.00;;;;;;5093452;28;20039;-74
2021/01/07 00:54:10;;;;;;;0.32;0.30;;;1.40;92.00;;;;;;5074008;28;20131;-74
2021/01/07 00:56:37;;;;;;;0.45;0.35;;;1.40;92.00;;;;;;5093077;28;20089;-74
2021/01/07 00:59:04;;;;;;;0.95;0.38;;;1.30;92.00;;;;;;5090966;28;20036;-73
2021/01/07 01:01:30;;;;;;;0.93;0.30;;;1.30;92.00;;;;;;5092786;28;20043;-73
2021/01/07 01:03:56;;;;;;;0.35;0.32;;;1.30;92.00;;;;;;5092891;28;20035;-74
2021/01/07 01:06:29;;;;;;;0.45;0.30;;;1.30;92.00;;;;;;5092901;28;20104;-74
2021/01/07 01:08:55;;;;;;;0.43;0.20;;;1.20;92.00;;;;;;5091874;28;20051;-74
2021/01/07 01:11:20;;;;;;;0.50;0.32;;;1.30;92.00;;;;;;5092737;28;20044;-73
2021/01/07 01:13:46;;;;;;;0.52;0.35;;;1.40;92.10;;;;;;5074278;28;20048;-75
2021/01/07 01:16:12;;;;;;;0.52;0.35;;;1.30;92.00;;;;;;5074723;28;20051;-74
2021/01/07 01:18:37;;;;;;;0.77;0.47;;;1.40;92.00;;;;;;5074400;28;20046;-74
2021/01/07 01:21:03;;;;;;;0.70;0.55;;;1.50;92.00;;;;;;5092373;28;20040;-73
2021/01/07 01:23:29;;;;;;;0.32;0.32;;;1.50;91.90;;;;;;5092982;28;20039;-74
2021/01/07 01:25:55;;;;;;;0.98;0.40;;;1.40;91.90;;;;;;5095915;28;20122;-75
2021/01/07 01:28:20;;;;;;;0.57;0.35;;;1.50;91.90;;;;;;5094033;28;20036;-74
2021/01/07 01:30:46;;;;;;;0.60;0.40;;;1.50;91.80;;;;;;5092404;28;20055;-73
2021/01/07 01:33:12;;;;;;;0.70;0.40;;;1.60;91.90;;;;;;5092449;28;20043;-73
2021/01/07 01:35:37;;;;;;;0.80;0.40;;;1.60;91.80;;;;;;5092852;28;20145;-74
2021/01/07 01:38:04;;;;;;;0.75;0.50;;;1.50;91.80;;;;;;5092515;28;20097;-74
2021/01/07 01:40:29;;;;;;;0.50;0.40;;;1.60;91.80;;;;;;5074895;28;20038;-73
2021/01/07 01:42:55;;;;;;;0.68;0.50;;;1.50;91.80;;;;;;5092224;28;20110;-73
2021/01/07 01:45:21;;;;;;;0.40;0.40;;;1.60;91.80;;;;;;5092402;28;20040;-73
2021/01/07 01:47:47;;;;;;;0.45;0.30;;;1.60;91.80;;;;;;5091985;28;20047;-74
2021/01/07 01:50:13;;;;;;;0.80;0.52;;;1.60;91.80;;;;;;5092500;28;20042;-75
2021/01/07 01:52:39;;;;;;;0.60;0.35;;;1.60;91.80;;;;;;5074092;28;20113;-75
2021/01/07 01:55:05;;;;;;;1.10;0.60;;;1.60;91.80;;;;;;5092385;28;20490;-74
2021/01/07 01:57:31;;;;;;;0.88;0.40;;;1.60;91.80;;;;;;5092580;28;20040;-74
2021/01/07 01:59:57;;;;;;;0.70;0.50;;;1.70;91.90;;;;;;5092548;28;20039;-73
2021/01/07 02:02:23;;;;;;;0.80;0.47;;;1.60;91.80;;;;;;5091809;28;20044;-76
2021/01/07 02:04:49;;;;;;;0.77;0.35;;;1.60;91.80;;;;;;5091706;28;20154;-73
2021/01/07 02:07:20;;;;;;;0.47;0.35;;;1.70;91.80;;;;;;5073471;28;20139;-73
2021/01/07 02:09:48;;;;;;;0.60;0.37;;;1.70;91.90;;;;;;5092024;28;20130;-73
2021/01/07 02:12:14;;;;;;;0.82;0.50;;;1.80;91.90;;;;;;5092312;28;20047;-73
2021/01/07 02:14:43;;;;;;;1.27;0.63;;;1.70;91.80;;;;;;5091879;28;20119;-73
2021/01/07 02:17:10;;;;;;;1.00;0.40;;;1.70;91.80;;;;;;5092070;28;20110;-73
2021/01/07 02:19:36;;;;;;;0.38;0.30;;;1.80;91.80;;;;;;5092001;28;20495;-73
2021/01/07 02:22:02;;;;;;;0.93;0.50;;;1.80;91.80;;;;;;5091901;28;20059;-73
2021/01/07 02:24:30;;;;;;;1.35;0.73;;;1.90;91.90;;;;;;5073984;28;20122;-73
2021/01/07 02:27:06;;;;;;;0.80;0.50;;;1.80;91.80;;;;;;5073444;28;20139;-73
2021/01/07 02:29:32;;;;;;;0.63;0.50;;;1.90;91.80;;;;;;5090498;28;20075;-74
2021/01/07 02:31:58;;;;;;;0.30;0.30;;;1.90;91.80;;;;;;5091555;28;20127;-73
2021/01/07 02:34:24;;;;;;;0.40;0.35;;;1.80;91.80;;;;;;5091521;28;20123;-73
2021/01/07 02:36:50;;;;;;;0.90;0.45;;;1.90;91.80;;;;;;5091626;28;20032;-73
2021/01/07 02:39:16;;;;;;;0.52;0.43;;;1.80;91.80;;;;;;5073419;28;20057;-73
2021/01/07 02:41:49;;;;;;;1.15;0.70;;;1.90;91.90;;;;;;5091480;28;20046;-74
2021/01/07 02:44:15;;;;;;;1.20;0.40;;;1.90;91.90;;;;;;5091510;28;20040;-73
2021/01/07 02:46:40;;;;;;;0.88;0.40;;;1.90;91.90;;;;;;5092087;28;20036;-72
2021/01/07 02:49:06;;;;;;;0.45;0.38;;;1.90;91.90;;;;;;5091274;28;20059;-71
2021/01/07 02:51:32;;;;;;;0.50;0.47;;;1.90;91.80;;;;;;5091343;28;20044;-72
2021/01/07 02:53:57;;;;;;;1.38;0.68;;;2.00;91.90;;;;;;5091653;28;20036;-72
2021/01/07 02:56:23;;;;;;;0.43;0.43;;;1.90;91.90;;;;;;5091782;28;20408;-73
2021/01/07 02:58:49;;;;;;;0.68;0.40;;;1.90;91.90;;;;;;5091287;28;20040;-75
2021/01/07 03:01:14;;;;;;;1.13;0.50;;;1.90;91.90;;;;;;5091595;28;20375;-75
2021/01/07 03:03:40;;;;;;;1.65;0.65;;;1.90;91.90;;;;;;5091907;28;20052;-76
2021/01/07 03:06:06;;;;;;;0.90;0.52;;;2.00;91.90;;;;;;5091272;28;20063;-74
2021/01/07 03:08:31;;;;;;;0.63;0.50;;;2.00;91.90;;;;;;5073923;28;20051;-74
2021/01/07 03:10:57;;;;;;;1.40;0.60;;;2.00;91.90;;;;;;5073318;28;20497;-73
2021/01/07 03:13:23;;;;;;;1.27;0.50;;;2.00;91.90;;;;;;5073200;28;20040;-73
2021/01/07 03:15:48;;;;;;;0.98;0.52;;;2.00;91.90;;;;;;5091299;28;20047;-74
2021/01/07 03:18:14;;;;;;;0.73;0.40;;;1.90;91.90;;;;;;5093359;28;20044;-75
2021/01/07 03:20:40;;;;;;;1.73;0.85;;;1.90;91.90;;;;;;5094584;28;20039;-74
2021/01/07 03:23:05;;;;;;;1.42;0.80;;;1.90;91.90;;;;;;5094519;28;20089;-74
2021/01/07 03:25:31;;;;;;;1.83;0.80;;;2.00;91.90;;;;;;5076178;28;20090;-74
2021/01/07 03:27:57;;;;;;;1.20;0.80;;;1.90;91.90;;;;;;5077105;28;20059;-74
2021/01/07 03:30:22;;;;;;;1.23;0.70;;;1.90;91.90;;;;;;5095871;28;20044;-73
2021/01/07 03:32:48;;;;;;;1.58;0.70;;;2.00;91.90;;;;;;5094277;28;20478;-74
2021/01/07 03:35:14;;;;;;;1.52;0.80;;;2.00;91.90;;;;;;5094386;28;20043;-73
2021/01/07 03:37:40;;;;;;;1.67;0.70;;;1.90;91.90;;;;;;5094613;28;20401;-73
2021/01/07 03:40:06;;;;;;;1.48;0.70;;;1.90;91.90;;;;;;5093944;28;20047;-73
2021/01/07 03:42:32;;;;;;;1.20;0.82;;;1.90;91.90;;;;;;5093933;28;20044;-73
2021/01/07 03:44:58;;;;;;;0.80;0.57;;;1.90;92.00;;;;;;5093863;28;20055;-73
2021/01/07 03:47:23;;;;;;;1.08;0.60;;;1.90;91.90;;;;;;5093854;28;20040;-73
2021/01/07 03:49:49;;;;;;;1.40;0.80;;;2.00;92.00;;;;;;5093842;28;20122;-74
2021/01/07 03:52:14;;;;;;;0.77;0.50;;;1.90;91.90;;;;;;5075641;28;20048;-73
2021/01/07 03:54:40;;;;;;;1.65;0.80;;;1.90;91.90;;;;;;5093678;28;20040;-73
2021/01/07 03:57:06;;;;;;;0.80;0.65;;;1.90;91.90;;;;;;5094201;28;20378;-73
2021/01/07 03:59:33;;;;;;;0.82;0.70;;;1.90;91.90;;;;;;5094072;28;20482;-74
2021/01/07 04:01:59;;;;;;;1.15;0.52;;;1.90;91.90;;;;;;5094204;28;20111;-73
2021/01/07 04:04:26;;;;;;;1.30;0.73;;;1.90;92.00;;;;;;5094240;28;20130;-73
2021/01/07 04:06:51;;;;;;;1.40;0.70;;;1.80;92.00;;;;;;5093829;28;20036;-73
2021/01/07 04:09:17;;;;;;;1.35;0.80;;;1.80;92.00;;;;;;5093923;28;20043;-73
2021/01/07 04:11:43;;;;;;;1.10;0.80;;;1.80;92.00;;;;;;5093835;28;20044;-73
2021/01/07 04:14:08;;;;;;;1.38;1.00;;;1.80;92.00;;;;;;5093562;28;20415;-73
2021/01/07 04:16:34;;;;;;;0.70;0.60;;;1.80;92.00;;;;;;5093821;28;20036;-73
2021/01/07 04:19:00;;;;;;;1.38;0.80;;;1.80;92.10;;;;;;5093739;28;20047;-73
2021/01/07 04:21:26;;;;;;;0.95;0.63;;;1.80;92.00;;;;;;5093540;28;20202;-73
2021/01/07 04:23:52;;;;;;;1.42;0.80;;;1.80;92.10;;;;;;5093383;28;20122;-73
2021/01/07 04:26:18;;;;;;;1.63;0.75;;;1.80;92.10;;;;;;5093406;28;20182;-73
2021/01/07 04:28:43;;;;;;;0.90;0.60;;;1.80;92.10;;;;;;5074917;28;20044;-73
2021/01/07 04:31:09;;;;;;;1.02;0.73;;;1.80;92.10;;;;;;5093348;28;20047;-73
2021/01/07 04:33:35;;;;;;;2.40;1.30;;;1.70;92.10;;;;;;5093378;28;20046;-73
2021/01/07 04:36:01;;;;;;;1.65;0.88;;;1.70;92.10;;;;;;5093275;28;20493;-73
2021/01/07 04:38:27;;;;;;;0.93;0.77;;;1.70;92.10;;;;;;5058287;28;20060;-74
2021/01/07 04:40:53;;;;;;;1.80;0.82;;;1.70;92.20;;;;;;5074903;28;20086;-73
2021/01/07 04:43:19;;;;;;;0.70;0.50;;;1.70;92.50;;;;;;5093264;28;20056;-73
2021/01/07 04:45:44;;;;;;;0.80;0.65;;;1.60;92.20;;;;;;5074898;28;20044;-73
2021/01/07 04:48:11;;;;;;;1.40;0.73;;;1.70;92.20;;;;;;5093297;28;20028;-73
2021/01/07 04:50:36;;;;;;;0.75;0.68;;;1.70;92.20;;;;;;5092990;28;20493;-73
2021/01/07 04:53:02;;;;;;;1.45;0.73;;;1.70;92.20;;;;;;5092988;28;20123;-73
2021/01/07 04:55:29;;;;;;;1.10;0.73;;;1.70;92.20;;;;;;5092806;28;20383;-73
2021/01/07 04:57:55;;;;;;;1.15;0.80;;;1.70;92.20;;;;;;5075565;28;20390;-74
2021/01/07 05:00:22;;;;;;;1.27;0.70;;;1.70;92.20;;;;;;5093399;28;20040;-73
2021/01/07 05:02:49;;;;;;;0.90;0.60;;;1.70;92.20;;;;;;5093542;28;20039;-73
2021/01/07 05:05:15;;;;;;;1.65;0.93;;;1.70;92.20;;;;;;5075255;28;20036;-73
2021/01/07 05:07:41;;;;;;;1.30;0.82;;;1.70;92.20;;;;;;5093351;28;20378;-73
2021/01/07 05:10:08;;;;;;;1.05;0.75;;;1.80;92.20;;;;;;5093663;28;20355;-73
2021/01/07 05:12:35;;;;;;;1.13;0.70;;;1.70;92.20;;;;;;5093108;28;20048;-73
2021/01/07 05:15:02;;;;;;;1.58;0.93;;;1.80;92.20;;;;;;5093108;28;20051;-73
2021/01/07 05:17:28;;;;;;;1.48;0.80;;;1.80;92.20;;;;;;5092639;28;20394;-73
2021/01/07 05:19:54;;;;;;;1.98;0.90;;;1.80;92.20;;;;;;5092818;28;20032;-74
2021/01/07 05:22:27;;;;;;;0.93;0.60;;;1.80;92.20;;;;;;5092937;28;20036;-73
2021/01/07 05:24:54;;;;;;;2.53;1.10;;;1.80;92.50;;;;;;5092795;28;20044;-73
2021/01/07 05:27:21;;;;;;;1.45;0.63;;;1.80;92.20;;;;;;5092906;28;20490;-73
2021/01/07 05:29:48;;;;;;;0.70;0.43;;;1.80;92.20;;;;;;5074565;28;20048;-73
2021/01/07 05:32:13;;;;;;;2.22;0.80;;;1.80;92.20;;;;;;5093092;28;20044;-74
2021/01/07 05:34:48;;;;;;;1.17;0.70;;;1.80;92.10;;;;;;5092831;28;20075;-74
2021/01/07 05:37:18;;;;;;;1.42;0.85;;;1.90;92.20;;;;;;5074630;28;20047;-74
2021/01/07 05:39:46;;;;;;;1.20;0.98;;;1.90;92.20;;;;;;5092327;28;20090;-74
2021/01/07 05:42:12;;;;;;;1.52;0.90;;;1.90;92.20;;;;;;5092429;28;20094;-74
2021/01/07 05:44:44;;;;;;;1.50;0.90;;;1.90;92.10;;;;;;5092933;28;20040;-74
2021/01/07 05:47:10;;;;;;;1.40;0.75;;;1.90;92.20;;;;;;5092585;28;20123;-73
2021/01/07 05:49:37;;;;;;;1.42;0.77;;;1.90;92.20;;;;;;5093110;28;20040;-74
2021/01/07 05:52:07;;;;;;;2.00;1.00;;;1.90;92.20;;;;;;5093160;28;20053;-74
2021/01/07 05:54:33;;;;;;;1.13;0.70;;;1.90;92.20;;;;;;5092625;28;20075;-73
2021/01/07 05:57:04;;;;;;;1.38;0.80;;;1.90;92.20;;;;;;5093040;28;20089;-74
2021/01/07 05:59:33;;;;;;;1.27;0.80;;;1.90;92.20;;;;;;5092629;28;20043;-74
2021/01/07 06:02:04;;;;;;;1.52;0.70;;;2.00;92.20;;;;;;5092354;28;20478;-74
2021/01/07 06:04:32;;;;;;;1.00;0.52;;;1.90;92.20;;;;;;5092430;28;20131;-73
2021/01/07 06:06:59;;;;;;;0.98;0.80;;;1.90;92.20;;;;;;5092370;28;20077;-74
2021/01/07 06:09:29;;;;;;;1.45;0.88;;;1.90;92.20;;;;;;5092601;28;20048;-74
2021/01/07 06:11:58;;;;;;;1.55;1.05;;;1.90;92.20;;;;;;5092314;28;20382;-74
2021/01/07 06:14:24;;;;;;;1.90;0.90;;;1.90;92.20;;;;;;5092324;28;20066;-74
2021/01/07 06:16:53;;;;;;;1.80;1.10;;;1.90;92.20;;;;;;5092324;28;20032;-74
2021/01/07 06:19:32;;;;;;;1.63;0.85;;;1.90;92.20;;;;;;5090181;28;20056;-74
2021/01/07 06:21:59;;;;;;;1.90;0.88;;;1.90;92.20;;;;;;5092478;28;20028;-73
2021/01/07 06:24:26;;;;;;;0.82;0.50;;;2.00;92.20;;;;;;5092402;28;20040;-74
2021/01/07 06:26:52;;;;;;;1.15;0.70;;;2.00;92.20;;;;;;5092082;28;20040;-73
2021/01/07 06:29:18;;;;;;;1.90;0.85;;;1.90;92.20;;;;;;5091944;28;20482;-74
2021/01/07 06:31:43;;;;;;;1.25;0.80;;;2.00;92.20;;;;;;5091898;28;20042;-74
2021/01/07 06:34:12;;;;;;;1.52;0.80;;;2.00;92.20;;;;;;5091977;28;20040;-74
2021/01/07 06:36:44;;;;;;;1.10;0.70;;;2.00;92.20;;;;;;5072505;28;20044;-74
2021/01/07 06:39:10;;;;;;;;;;;2.10;92.30;;;;;;5092258;28;20036;-74
2021/01/07 06:41:36;;;;;;;1.08;0.70;;;2.00;92.20;;;;;;5091794;28;19935;-74
2021/01/07 06:44:05;;;;;;;1.15;0.68;;;2.00;92.20;;;;;;5073704;28;20052;-74
2021/01/07 06:46:47;;;;;;;1.55;0.77;;;2.10;92.20;;;;;;5091855;28;20044;-74
2021/01/07 06:49:30;;;;;;;1.58;0.80;;;2.10;92.30;;;;;;5091846;28;20051;-74
2021/01/07 06:52:00;;;;;;;1.52;0.90;;;2.00;92.20;;;;;;5091871;28;20043;-74
2021/01/07 06:54:31;;;;;;;0.85;0.60;;;2.00;92.20;;;;;;5077287;28;20077;-73
2021/01/07 06:56:58;;;;;;;1.30;0.75;;;2.00;92.20;;;;;;5095438;28;20414;-74
2021/01/07 06:59:24;;;;;;;1.52;0.70;;;2.00;92.20;;;;;;5095810;28;20036;-74
2021/01/07 07:01:52;;;;;;;1.85;0.88;;;2.10;92.30;;;;;;5095256;28;20186;-74
2021/01/07 07:04:28;;;;;;;1.05;0.70;;;2.10;92.30;;;;;;5095629;28;20087;-74
2021/01/07 07:06:59;;;;;;;0.85;0.70;;;2.10;92.30;;;;;;5077465;28;20044;-74
2021/01/07 07:09:26;;;;;;;0.88;0.75;;;2.10;92.20;;;;;;5093206;28;20054;-74
2021/01/07 07:11:54;;;;;;;1.50;0.90;;;2.10;92.20;;;;;;5095025;28;20097;-73
2021/01/07 07:14:22;;;;;;;1.52;0.95;;;2.10;92.20;;;;;;5094771;28;20067;-74
2021/01/07 07:16:49;;;;;;;1.67;0.80;;;2.10;92.20;;;;;;5095301;28;20470;-74
2021/01/07 07:19:29;;;;;;;2.03;0.75;;;2.10;92.30;;;;;;5076727;28;20378;-74
2021/01/07 07:21:57;;;;;;;1.23;0.70;;;2.10;92.30;;;;;;5094606;28;20066;-74
2021/01/07 07:24:35;;;;;;;1.58;0.85;;;2.20;92.30;;;;;;5095204;28;20382;-73
2021/01/07 07:27:04;;;;;;;1.60;0.70;;;2.20;92.30;;;;;;5094772;28;20504;-74
2021/01/07 07:29:33;;;;;;;1.58;0.85;;;2.10;92.20;;;;;;5094770;28;20402;-74
2021/01/07 07:31:59;;;;;;;0.80;0.60;;;2.10;92.20;;;;;;5094692;28;20090;-74
2021/01/07 07:34:31;;;;;;;0.85;0.60;;;2.10;92.30;;;;;;5076615;28;20486;-74
2021/01/07 07:36:58;;;;;;;1.65;0.82;;;2.10;92.30;;;;;;5092396;28;20070;-74
2021/01/07 07:39:27;;;;;;;0.98;0.68;;;2.20;92.30;;;;;;5094514;28;20064;-74
2021/01/07 07:42:08;;;;;;;1.85;0.90;;;2.20;92.30;;;;;;5094733;28;20040;-74
2021/01/07 07:44:34;;;;;;;2.05;0.80;;;2.10;92.30;;;;;;5094530;28;20040;-74
2021/01/07 07:47:00;;;;;;;1.40;0.75;;;2.20;92.30;;;;;;5094502;28;20043;-74
2021/01/07 07:49:26;;;;;;;1.17;0.80;;;2.20;92.30;;;;;;5094451;28;20581;-74
2021/01/07 07:51:52;;;;;;;1.55;0.90;;;2.20;92.30;;;;;;5094249;28;20075;-74
2021/01/07 07:54:18;;;;;;;1.00;0.70;;;2.20;92.30;;;;;;5094074;28;20090;-74
2021/01/07 07:56:43;;;;;;;1.77;0.80;;;2.20;92.30;;;;;;5094554;28;20486;-74
2021/01/07 07:59:11;;;;;;;2.13;1.10;;;2.20;92.30;;;;;;5094202;28;20036;-74
2021/01/07 08:01:39;;;;;;;1.65;0.73;;;2.20;92.30;;;;;;5094051;28;20032;-74
2021/01/07 08:04:10;;;;;;;1.35;0.77;;;2.20;92.30;;;;;;5093508;28;20401;-74
2021/01/07 08:06:36;;;;;;;2.75;1.15;;;2.20;92.30;;;;;;5076323;28;20036;-74
2021/01/07 08:09:05;;;;;;;1.10;0.80;;;2.30;92.30;;;;;;5094394;28;20067;-73
2021/01/07 08:11:39;;;;;;;0.73;0.50;;;2.20;92.30;;;;;;5094465;28;20044;-74
2021/01/07 08:14:08;;;;;;;0.93;0.50;;;2.30;92.40;;;;;;5074597;28;20044;-74
2021/01/07 08:16:34;;;;;;;1.35;0.70;;;2.30;92.30;;;;;;5093974;28;20048;-74
2021/01/07 08:18:59;;;;;;;1.15;0.70;;;2.30;92.30;;;;;;5093995;28;20490;-74
2021/01/07 08:21:25;;;;;;;1.85;1.00;;;2.30;92.30;;;;;;5093996;28;20040;-74
2021/01/07 08:23:51;;;;;;;1.48;0.88;;;2.30;92.30;;;;;;5094013;28;20512;-74
2021/01/07 08:26:27;;;;;;;1.00;0.80;;;2.30;92.30;;;;;;5075788;28;20490;-74
2021/01/07 08:28:53;;;;;;;1.20;0.70;;;2.30;92.30;;;;;;5094259;28;20048;-74
2021/01/07 08:31:26;;;;;;;1.80;0.88;;;2.40;92.40;;;;;;5094554;28;20062;-76
2021/01/07 08:33:52;;;;;;;2.67;1.15;;;2.40;92.60;;;;;;5075469;28;20047;-76
2021/01/07 08:36:24;;;;;;;3.08;1.50;;;2.40;92.30;;;;;;5095211;28;20051;-77
2021/01/07 08:38:53;;;;;;;2.42;1.13;;;2.30;92.30;;;;;;5056836;28;20042;-77
2021/01/07 08:41:30;;;;;;;1.92;1.10;;;2.40;92.30;;;;;;5052232;28;20423;-79
2021/01/07 08:44:01;;;;;;;1.95;1.10;;;2.40;92.30;;;;;;5037876;28;20037;-78
2021/01/07 08:46:31;;;;;;;;;;;2.50;92.30;;;;;;5040042;28;20410;-79
2021/01/07 08:49:04;;;;;;;2.95;1.25;;;2.50;92.30;;;;;;5034676;28;19962;-77
2021/01/07 08:51:42;;;;;;;2.50;1.25;;;2.50;92.30;;;;;;5038296;28;20503;-78
2021/01/07 08:54:12;;;;;;;2.28;1.10;;;2.50;92.30;;;;;;5036850;28;20098;-78
2021/01/07 08:56:41;;;;;;;2.00;1.08;;;2.50;92.30;;;;;;5051832;28;20419;-76
2021/01/07 08:59:36;;;;;;;2.25;0.98;;;2.50;92.30;;;;;;5053971;28;20041;-77
2021/01/07 09:02:21;;;;;;;2.17;1.10;;;2.50;92.30;;;;;;5034449;28;20036;-77
2021/01/07 09:04:52;;;;;;;1.85;1.13;;;2.50;92.30;;;;;;5050849;28;20072;-74
2021/01/07 09:07:20;;;;;;;1.67;1.00;;;2.60;92.30;;;;;;5051478;28;20060;-75
2021/01/07 09:09:54;;;;;;;1.60;0.93;;;2.60;92.30;;;;;;5034518;28;20064;-76
2021/01/07 09:12:24;;;;;;;2.38;1.30;;;2.60;92.30;;;;;;5072589;28;20055;-75
2021/01/07 09:15:05;;;;;;;1.73;0.85;;;2.60;92.50;;;;;;5092865;28;20136;-76
2021/01/07 09:17:58;;;;;;;1.88;1.08;;;2.70;92.30;;;;;;5093595;28;20125;-76
2021/01/07 09:20:32;;;;;;;1.92;1.15;;;2.70;92.30;;;;;;5093633;28;20470;-76
2021/01/07 09:23:05;;;;;;;2.30;1.30;;;2.70;92.30;;;;;;5092906;28;20124;-75
2021/01/07 09:25:31;;;;;;;3.10;1.40;;;2.70;92.20;;;;;;5058884;28;20398;-75
2021/01/07 09:27:57;;;;;;;1.83;1.13;;;2.70;92.20;;;;;;5093633;28;20074;-75
2021/01/07 09:30:24;;;;;;;1.90;1.10;;;2.80;92.30;;;;;;5093962;28;20553;-76
2021/01/07 09:32:50;;;;;;;2.35;1.08;;;2.70;92.20;;;;;;5095159;28;20401;-74
2021/01/07 09:35:16;;;;;;;1.42;0.85;;;2.80;92.30;;;;;;5075200;28;20470;-75
2021/01/07 09:37:42;;;;;;;1.40;0.90;;;2.80;92.30;;;;;;5094196;28;20044;-76
2021/01/07 09:40:09;;;;;;;1.35;0.88;;;2.80;92.30;;;;;;5093061;28;20493;-75
2021/01/07 09:42:35;;;;;;;1.40;0.77;;;2.80;92.30;;;;;;5092647;28;20117;-74
2021/01/07 09:45:02;;;;;;;1.35;0.80;;;2.90;92.30;;;;;;5092504;28;20433;-75
2021/01/07 09:47:29;;;;;;;0.88;0.70;;;2.90;92.30;;;;;;5092768;28;20127;-75
2021/01/07 09:49:56;;;;;;;0.95;0.60;;;2.80;92.30;;;;;;5074628;28;20492;-74
2021/01/07 09:52:22;;;;;;;0.80;0.60;;;2.90;92.30;;;;;;5075676;28;20404;-76
2021/01/07 09:54:48;;;;;;;0.73;0.60;;;2.80;92.30;;;;;;5094361;28;20052;-75
2021/01/07 09:57:14;;;;;;;1.05;0.60;;;2.90;92.30;;;;;;5093092;28;20036;-76
2021/01/07 09:59:40;;;;;;;0.90;0.65;;;2.90;92.30;;;;;;5074143;28;20072;-75
2021/01/07 10:02:08;;;;;;;1.35;0.70;;;2.90;92.30;;;;;;5092387;28;20050;-74
2021/01/07 10:04:35;;;;;;;0.95;0.68;;;2.90;92.30;;;;;;5092944;28;20127;-75
2021/01/07 10:07:04;;;;;;;1.42;0.80;;;3.00;92.30;;;;;;5074254;28;20040;-73
2021/01/07 10:09:30;;;;;;;1.05;0.65;;;2.90;92.30;;;;;;5092541;28;20036;-73
2021/01/07 10:11:57;;;;;;;1.40;0.80;;;3.00;92.30;;;;;;5074283;28;20397;-73
2021/01/07 10:14:24;;;;;;;1.25;0.60;;;3.00;92.30;;;;;;5074064;28;20044;-73
2021/01/07 10:16:52;;;;;;;0.77;0.65;;;3.00;92.30;;;;;;5073917;28;20047;-73
2021/01/07 10:19:19;;;;;;;1.00;0.70;;;3.10;92.30;;;;;;5092161;28;20044;-73
2021/01/07 10:22:15;;;;;;;0.63;0.50;;;3.10;92.30;;;;;;5092252;28;20501;-73
2021/01/07 10:24:42;;;;;;;0.60;0.60;;;3.20;92.30;;;;;;5092089;28;20040;-73
2021/01/07 10:27:10;;;;;;;0.85;0.50;;;3.20;92.30;;;;;;5094536;28;20070;-75
2021/01/07 10:29:38;;;;;;;0.82;0.50;;;3.20;92.20;;;;;;5096606;28;20083;-74
2021/01/07 10:32:06;;;;;;;0.65;0.47;;;3.30;92.30;;;;;;5096265;28;20040;-75
2021/01/07 10:34:35;;;;;;;1.60;0.80;;;3.30;92.30;;;;;;5096101;28;20115;-74
2021/01/07 10:37:04;;;;;;;1.15;0.70;;;3.30;92.20;;;;;;5096170;28;20123;-73
2021/01/07 10:39:33;;;;;;;0.63;0.55;;;3.40;92.20;;;;;;5095793;28;20051;-73
2021/01/07 10:42:00;;;;;;;0.88;0.68;;;3.50;92.20;;;;;;5095570;28;20482;-75
2021/01/07 10:44:28;;;;;;;0.55;0.50;;;3.60;92.20;;;;;;5095904;28;20425;-74
2021/01/07 10:46:58;;;;;;;0.60;0.60;;;3.60;92.10;;;;;;5095196;28;20050;-73
2021/01/07 10:49:27;;;;;;;1.02;0.60;;;3.60;92.10;;;;;;5077380;28;20119;-76
2021/01/07 10:52:18;;;;;;;1.42;0.90;;;3.60;92.10;;;;;;5060530;28;20044;-74
2021/01/07 10:55:07;;;;;;;1.05;0.70;;;3.70;92.10;;;;;;5095471;28;20478;-74
2021/01/07 10:57:48;;;;;;;0.93;0.70;;;3.70;92.10;;;;;;5095448;28;20040;-73
2021/01/07 11:00:48;;;;;;;1.10;0.60;;;3.70;92.10;;;;;;5095616;28;20115;-73
2021/01/07 11:03:34;;;;;;;0.98;0.50;;;3.80;92.20;;;;;;5095037;28;20044;-73
2021/01/07 11:06:03;;;;;;;0.55;0.47;;;3.60;92.20;;;;;;5095338;28;20090;-74
2021/01/07 11:08:45;;;;;;;0.38;0.38;;;3.60;92.20;;;;;;5094928;28;20040;-73
2021/01/07 11:11:22;;;;;;;0.40;0.40;;;3.60;92.20;;;;;;5094281;28;20047;-73
2021/01/07 11:14:05;;;;;;;1.13;0.50;;;3.70;92.20;;;;;;5094989;28;20047;-73
2021/01/07 11:16:41;;;;;;;1.52;0.95;;;3.70;92.20;;;;;;5095356;28;20036;-74
2021/01/07 11:19:09;;;;;;;0.75;0.50;;;3.70;92.20;;;;;;5094921;28;20123;-75
2021/01/07 11:21:39;;;;;;;0.98;0.60;;;3.80;92.20;;;;;;5094922;28;20115;-75
2021/01/07 11:24:06;;;;;;;0.68;0.50;;;3.70;92.20;;;;;;5093060;28;20432;-76
2021/01/07 11:26:32;;;;;;;1.52;0.70;;;3.70;92.20;;;;;;5095331;28;20075;-74
2021/01/07 11:28:59;;;;;;;0.70;0.50;;;3.80;92.20;;;;;;5076460;28;20070;-76
2021/01/07 11:31:25;;;;;;;1.35;0.85;;;3.80;92.20;;;;;;5095257;28;20043;-75
2021/01/07 11:33:53;;;;;;;1.65;0.60;;;3.80;92.20;;;;;;5094590;28;20052;-74
2021/01/07 11:36:24;;;;;;;0.57;0.50;;;3.70;92.20;;;;;;5094568;28;20398;-75
2021/01/07 11:38:58;;;;;;;0.88;0.60;;;3.80;92.20;;;;;;5093588;28;20036;-74
2021/01/07 11:41:53;;;;;;;0.75;0.60;;;3.80;92.50;;;;;;5093674;28;20036;-74
2021/01/07 11:44:37;;;;;;;1.17;0.73;;;3.70;92.20;;;;;;5080907;28;20102;-74
2021/01/07 11:47:09;;;;;;;1.20;0.70;;;3.70;92.20;;;;;;5094336;28;20071;-74
2021/01/07 11:49:40;;;;;;;1.13;0.77;;;3.70;92.20;;;;;;5094516;28;20184;-73
2021/01/07 11:52:08;;;;;;;0.57;0.50;;;3.70;92.50;;;;;;5094912;28;20054;-74
2021/01/07 11:54:38;;;;;;;0.95;0.63;;;3.90;92.30;;;;;;5094250;28;20070;-74
2021/01/07 11:57:07;;;;;;;2.17;0.75;;;3.80;92.30;;;;;;5094657;28;20062;-74
2021/01/07 11:59:38;;;;;;;0.70;0.70;;;3.70;92.20;;;;;;5094191;28;20499;-74
2021/01/07 12:02:07;;;;;;;1.10;0.63;;;3.80;92.20;;;;;;5094660;28;20492;-74
2021/01/07 12:04:35;;;;;;;0.93;0.65;;;3.90;92.20;;;;;;5094192;28;20051;-74
2021/01/07 12:07:13;;;;;;;0.40;0.40;;;3.80;92.20;;;;;;5094726;28;20063;-75
2021/01/07 12:09:42;;;;;;;0.50;0.50;;;3.90;92.20;;;;;;5092234;28;20040;-75
2021/01/07 12:12:15;;;;;;;0.50;0.40;;;3.90;92.20;;;;;;5094153;28;20063;-75
2021/01/07 12:14:48;;;;;;;0.40;0.38;;;3.80;92.20;;;;;;5094190;28;20040;-74
2021/01/07 12:17:14;;;;;;;0.50;0.40;;;3.90;92.20;;;;;;5075971;28;20173;-74
2021/01/07 12:19:41;;;;;;;0.60;0.60;;;3.90;92.20;;;;;;5093962;28;20064;-73
2021/01/07 12:22:08;;;;;;;0.45;0.30;;;3.90;92.20;;;;;;5075915;28;20090;-74
2021/01/07 12:24:35;;;;;;;0.35;0.30;;;3.90;92.20;;;;;;5094307;28;20240;-75
2021/01/07 12:27:03;;;;;;;0.40;0.40;;;3.90;92.20;;;;;;5094457;28;20047;-75
2021/01/07 12:29:29;;;;;;;0.77;0.55;;;3.90;92.20;;;;;;5093826;28;20044;-74
2021/01/07 12:31:57;;;;;;;0.50;0.50;;;4.00;92.30;;;;;;5073869;28;20040;-74
2021/01/07 12:34:47;;;;;;;0.47;0.40;;;3.90;92.50;;;;;;5093681;28;20044;-74
2021/01/07 12:37:14;;;;;;;0.40;0.40;;;3.90;92.30;;;;;;5091860;28;20040;-75
2021/01/07 12:40:01;;;;;;;0.43;0.30;;;3.90;92.30;;;;;;5093415;28;20028;-74
2021/01/07 12:42:31;;;;;;;0.20;0.20;;;3.90;92.30;;;;;;5091864;28;20068;-75
2021/01/07 12:45:01;;;;;;;0.40;0.20;;;3.90;92.30;;;;;;5091529;28;20545;-73
2021/01/07 12:47:27;;;;;;;0.40;0.32;;;4.00;92.30;;;;;;5091456;28;20032;-71
2021/01/07 12:49:56;;;;;;;0.20;0.20;;;4.10;92.30;;;;;;5093850;28;20127;-72
2021/01/07 12:52:24;;;;;;;0.20;0.20;;;4.00;92.30;;;;;;5093475;28;20048;-72
2021/01/07 12:54:54;;;;;;;0.30;0.28;;;4.00;92.20;;;;;;5075163;28;20130;-72
2021/01/07 12:57:24;;;;;;;0.45;0.28;;;4.00;92.30;;;;;;5092984;28;20047;-74
2021/01/07 13:00:11;;;;;;;0.40;0.22;;;4.10;92.30;;;;;;5093600;28;20032;-72
2021/01/07 13:02:50;;;;;;;0.38;0.32;;;4.00;92.20;;;;;;5078473;28;20043;-73
2021/01/07 13:05:25;;;;;;;0.70;0.30;;;4.00;92.20;;;;;;5093540;28;20055;-72